sensor_id;sensor_type;location;lat;lon;timestamp;P1;durP1;ratioP1;P2;durP2;ratioP2
43933;SDS011;59081;42.706;23.306;2022-07-23T00:01:32;16.10;;;13.23;;
43933;SDS011;59081;42.706;23.306;2022-07-23T00:03:58;27.55;;;13.75;;
43933;SDS011;59081;42.706;23.306;2022-07-23T00:06:24;15.45;;;12.15;;
43933;SDS011;59081;42.706;23.306;2022-07-23T00:08:50;15.90;;;10.70;;
43933;SDS011;59081;42.706;23.306;2022-07-23T00:11:16;20.55;;;11.02;;
43933;SDS011;59081;42.706;23.306;2022-07-23T00:13:42;12.52;;;9.18;;
43933;SDS011;59081;42.706;23.306;2022-07-23T00:16:07;10.50;;;9.02;;
43933;SDS011;59081;42.706;23.306;2022-07-23T00:18:33;11.50;;;7.63;;
43933;SDS011;59081;42.706;23.306;2022-07-23T00:20:59;16.20;;;8.02;;
43933;SDS011;59081;42.706;23.306;2022-07-23T00:23:25;16.88;;;8.07;;
43933;SDS011;59081;42.706;23.306;2022-07-23T00:25:52;11.00;;;7.05;;
43933;SDS011;59081;42.706;23.306;2022-07-23T00:28:18;11.73;;;6.72;;
43933;SDS011;59081;42.706;23.306;2022-07-23T00:30:44;12.60;;;6.68;;
43933;SDS011;59081;42.706;23.306;2022-07-23T00:33:10;14.23;;;7.38;;
43933;SDS011;59081;42.706;23.306;2022-07-23T00:35:37;15.60;;;6.93;;
43933;SDS011;59081;42.706;23.306;2022-07-23T00:38:05;14.23;;;6.70;;
43933;SDS011;59081;42.706;23.306;2022-07-23T00:40:33;10.45;;;7.07;;
43933;SDS011;59081;42.706;23.306;2022-07-23T00:42:59;15.82;;;7.25;;
43933;SDS011;59081;42.706;23.306;2022-07-23T00:45:25;10.15;;;6.10;;
43933;SDS011;59081;42.706;23.306;2022-07-23T00:47:51;13.30;;;6.40;;
43933;SDS011;59081;42.706;23.306;2022-07-23T00:50:17;10.50;;;5.68;;
43933;SDS011;59081;42.706;23.306;2022-07-23T00:52:43;9.63;;;6.22;;
43933;SDS011;59081;42.706;23.306;2022-07-23T00:55:10;10.00;;;6.20;;
43933;SDS011;59081;42.706;23.306;2022-07-23T00:57:37;12.60;;;6.53;;
43933;SDS011;59081;42.706;23.306;2022-07-23T01:00:04;13.43;;;6.05;;
43933;SDS011;59081;42.706;23.306;2022-07-23T01:02:31;12.82;;;6.65;;
43933;SDS011;59081;42.706;23.306;2022-07-23T01:04:57;10.95;;;6.72;;
43933;SDS011;59081;42.706;23.306;2022-07-23T01:07:23;10.43;;;5.60;;
43933;SDS011;59081;42.706;23.306;2022-07-23T01:09:49;9.55;;;6.22;;
43933;SDS011;59081;42.706;23.306;2022-07-23T01:12:15;14.82;;;5.78;;
43933;SDS011;59081;42.706;23.306;2022-07-23T01:14:43;11.32;;;6.35;;
43933;SDS011;59081;42.706;23.306;2022-07-23T01:17:09;9.10;;;5.78;;
43933;SDS011;59081;42.706;23.306;2022-07-23T01:19:35;10.88;;;6.22;;
43933;SDS011;59081;42.706;23.306;2022-07-23T01:22:01;13.45;;;6.75;;
43933;SDS011;59081;42.706;23.306;2022-07-23T01:24:28;18.48;;;6.75;;
43933;SDS011;59081;42.706;23.306;2022-07-23T01:26:53;10.40;;;6.28;;
43933;SDS011;59081;42.706;23.306;2022-07-23T01:29:19;9.80;;;6.10;;
43933;SDS011;59081;42.706;23.306;2022-07-23T01:31:46;14.88;;;7.18;;
43933;SDS011;59081;42.706;23.306;2022-07-23T01:34:12;10.18;;;6.28;;
43933;SDS011;59081;42.706;23.306;2022-07-23T01:36:37;10.88;;;6.25;;
43933;SDS011;59081;42.706;23.306;2022-07-23T01:39:03;12.15;;;6.72;;
43933;SDS011;59081;42.706;23.306;2022-07-23T01:41:29;13.65;;;6.30;;
43933;SDS011;59081;42.706;23.306;2022-07-23T01:43:55;13.38;;;6.47;;
43933;SDS011;59081;42.706;23.306;2022-07-23T01:46:21;10.88;;;6.78;;
43933;SDS011;59081;42.706;23.306;2022-07-23T01:48:46;12.27;;;6.40;;
43933;SDS011;59081;42.706;23.306;2022-07-23T01:51:12;9.60;;;5.97;;
43933;SDS011;59081;42.706;23.306;2022-07-23T01:53:37;10.52;;;6.15;;
43933;SDS011;59081;42.706;23.306;2022-07-23T01:56:03;13.90;;;7.07;;
43933;SDS011;59081;42.706;23.306;2022-07-23T01:58:29;11.90;;;5.82;;
43933;SDS011;59081;42.706;23.306;2022-07-23T02:00:55;9.50;;;5.88;;
43933;SDS011;59081;42.706;23.306;2022-07-23T02:03:21;10.40;;;6.57;;
43933;SDS011;59081;42.706;23.306;2022-07-23T02:05:47;12.38;;;6.05;;
43933;SDS011;59081;42.706;23.306;2022-07-23T02:08:13;14.50;;;7.32;;
43933;SDS011;59081;42.706;23.306;2022-07-23T02:10:38;16.52;;;7.22;;
43933;SDS011;59081;42.706;23.306;2022-07-23T02:13:04;8.95;;;5.82;;
43933;SDS011;59081;42.706;23.306;2022-07-23T02:15:30;12.32;;;6.57;;
43933;SDS011;59081;42.706;23.306;2022-07-23T02:17:55;13.68;;;6.72;;
43933;SDS011;59081;42.706;23.306;2022-07-23T02:20:21;8.82;;;5.60;;
43933;SDS011;59081;42.706;23.306;2022-07-23T02:22:47;9.70;;;5.55;;
43933;SDS011;59081;42.706;23.306;2022-07-23T02:25:13;11.57;;;6.18;;
43933;SDS011;59081;42.706;23.306;2022-07-23T02:27:39;10.85;;;6.22;;
43933;SDS011;59081;42.706;23.306;2022-07-23T02:30:04;11.63;;;6.50;;
43933;SDS011;59081;42.706;23.306;2022-07-23T02:32:31;10.73;;;5.80;;
43933;SDS011;59081;42.706;23.306;2022-07-23T02:34:57;13.73;;;6.07;;
43933;SDS011;59081;42.706;23.306;2022-07-23T02:37:22;9.77;;;5.47;;
43933;SDS011;59081;42.706;23.306;2022-07-23T02:39:48;10.77;;;6.32;;
43933;SDS011;59081;42.706;23.306;2022-07-23T02:42:13;10.88;;;6.20;;
43933;SDS011;59081;42.706;23.306;2022-07-23T02:44:40;11.25;;;6.85;;
43933;SDS011;59081;42.706;23.306;2022-07-23T02:47:06;10.20;;;6.95;;
43933;SDS011;59081;42.706;23.306;2022-07-23T02:49:31;11.45;;;6.65;;
43933;SDS011;59081;42.706;23.306;2022-07-23T02:51:57;14.70;;;6.95;;
43933;SDS011;59081;42.706;23.306;2022-07-23T02:54:23;9.82;;;6.05;;
43933;SDS011;59081;42.706;23.306;2022-07-23T02:56:49;15.07;;;7.18;;
43933;SDS011;59081;42.706;23.306;2022-07-23T02:59:16;13.55;;;6.55;;
43933;SDS011;59081;42.706;23.306;2022-07-23T03:01:42;14.73;;;6.60;;
43933;SDS011;59081;42.706;23.306;2022-07-23T03:04:08;10.68;;;6.97;;
43933;SDS011;59081;42.706;23.306;2022-07-23T03:06:33;10.93;;;6.70;;
43933;SDS011;59081;42.706;23.306;2022-07-23T03:08:59;14.68;;;6.90;;
43933;SDS011;59081;42.706;23.306;2022-07-23T03:11:24;13.60;;;6.38;;
43933;SDS011;59081;42.706;23.306;2022-07-23T03:13:50;14.52;;;7.47;;
43933;SDS011;59081;42.706;23.306;2022-07-23T03:16:15;12.32;;;6.80;;
43933;SDS011;59081;42.706;23.306;2022-07-23T03:18:41;11.90;;;6.82;;
43933;SDS011;59081;42.706;23.306;2022-07-23T03:21:06;10.80;;;6.72;;
43933;SDS011;59081;42.706;23.306;2022-07-23T03:23:33;9.93;;;7.00;;
43933;SDS011;59081;42.706;23.306;2022-07-23T03:25:58;12.48;;;7.00;;
43933;SDS011;59081;42.706;23.306;2022-07-23T03:28:24;12.63;;;6.75;;
43933;SDS011;59081;42.706;23.306;2022-07-23T03:30:49;13.23;;;7.63;;
43933;SDS011;59081;42.706;23.306;2022-07-23T03:33:15;12.75;;;7.85;;
43933;SDS011;59081;42.706;23.306;2022-07-23T03:35:43;12.32;;;7.00;;
43933;SDS011;59081;42.706;23.306;2022-07-23T03:38:09;17.20;;;7.88;;
43933;SDS011;59081;42.706;23.306;2022-07-23T03:40:35;10.88;;;7.75;;
43933;SDS011;59081;42.706;23.306;2022-07-23T03:43:00;14.98;;;8.05;;
43933;SDS011;59081;42.706;23.306;2022-07-23T03:45:26;12.93;;;7.85;;
43933;SDS011;59081;42.706;23.306;2022-07-23T03:47:52;16.80;;;8.18;;
43933;SDS011;59081;42.706;23.306;2022-07-23T03:50:17;10.63;;;7.25;;
43933;SDS011;59081;42.706;23.306;2022-07-23T03:52:43;12.88;;;7.45;;
43933;SDS011;59081;42.706;23.306;2022-07-23T03:55:12;9.85;;;6.57;;
43933;SDS011;59081;42.706;23.306;2022-07-23T03:57:37;15.65;;;7.00;;
43933;SDS011;59081;42.706;23.306;2022-07-23T04:00:04;10.45;;;6.78;;
43933;SDS011;59081;42.706;23.306;2022-07-23T04:02:32;13.35;;;7.82;;
43933;SDS011;59081;42.706;23.306;2022-07-23T04:04:58;14.45;;;7.95;;
43933;SDS011;59081;42.706;23.306;2022-07-23T04:07:25;13.65;;;7.68;;
43933;SDS011;59081;42.706;23.306;2022-07-23T04:09:50;15.25;;;8.38;;
43933;SDS011;59081;42.706;23.306;2022-07-23T04:12:16;13.98;;;7.60;;
43933;SDS011;59081;42.706;23.306;2022-07-23T04:14:41;18.67;;;8.85;;
43933;SDS011;59081;42.706;23.306;2022-07-23T04:17:07;13.65;;;8.05;;
43933;SDS011;59081;42.706;23.306;2022-07-23T04:19:33;17.15;;;7.55;;
43933;SDS011;59081;42.706;23.306;2022-07-23T04:21:58;15.93;;;7.85;;
43933;SDS011;59081;42.706;23.306;2022-07-23T04:24:24;14.55;;;7.93;;
43933;SDS011;59081;42.706;23.306;2022-07-23T04:26:49;12.23;;;7.85;;
43933;SDS011;59081;42.706;23.306;2022-07-23T04:29:15;11.13;;;7.95;;
43933;SDS011;59081;42.706;23.306;2022-07-23T04:31:40;16.02;;;8.32;;
43933;SDS011;59081;42.706;23.306;2022-07-23T04:34:06;11.05;;;7.50;;
43933;SDS011;59081;42.706;23.306;2022-07-23T04:36:31;14.52;;;7.50;;
43933;SDS011;59081;42.706;23.306;2022-07-23T04:38:57;14.13;;;8.25;;
43933;SDS011;59081;42.706;23.306;2022-07-23T04:41:23;15.73;;;8.27;;
43933;SDS011;59081;42.706;23.306;2022-07-23T04:43:48;13.88;;;8.65;;
43933;SDS011;59081;42.706;23.306;2022-07-23T04:46:14;16.15;;;8.40;;
43933;SDS011;59081;42.706;23.306;2022-07-23T04:48:39;13.75;;;8.25;;
43933;SDS011;59081;42.706;23.306;2022-07-23T04:51:05;14.65;;;8.10;;
43933;SDS011;59081;42.706;23.306;2022-07-23T04:53:30;11.93;;;7.88;;
43933;SDS011;59081;42.706;23.306;2022-07-23T04:55:56;12.98;;;8.20;;
43933;SDS011;59081;42.706;23.306;2022-07-23T04:58:22;14.98;;;8.75;;
43933;SDS011;59081;42.706;23.306;2022-07-23T05:00:47;18.95;;;8.52;;
43933;SDS011;59081;42.706;23.306;2022-07-23T05:03:16;13.63;;;7.88;;
43933;SDS011;59081;42.706;23.306;2022-07-23T05:05:42;16.42;;;7.95;;
43933;SDS011;59081;42.706;23.306;2022-07-23T05:08:08;13.27;;;8.60;;
43933;SDS011;59081;42.706;23.306;2022-07-23T05:10:34;17.95;;;7.93;;
43933;SDS011;59081;42.706;23.306;2022-07-23T05:12:59;14.50;;;9.38;;
43933;SDS011;59081;42.706;23.306;2022-07-23T05:15:25;21.48;;;7.57;;
43933;SDS011;59081;42.706;23.306;2022-07-23T05:17:50;15.02;;;8.45;;
43933;SDS011;59081;42.706;23.306;2022-07-23T05:20:16;14.48;;;7.97;;
43933;SDS011;59081;42.706;23.306;2022-07-23T05:22:41;14.60;;;7.90;;
43933;SDS011;59081;42.706;23.306;2022-07-23T05:25:07;16.42;;;7.38;;
43933;SDS011;59081;42.706;23.306;2022-07-23T05:27:33;18.17;;;8.40;;
43933;SDS011;59081;42.706;23.306;2022-07-23T05:29:59;13.90;;;7.80;;
43933;SDS011;59081;42.706;23.306;2022-07-23T05:32:24;16.25;;;7.85;;
43933;SDS011;59081;42.706;23.306;2022-07-23T05:34:50;12.85;;;7.43;;
43933;SDS011;59081;42.706;23.306;2022-07-23T05:37:16;13.43;;;7.65;;
43933;SDS011;59081;42.706;23.306;2022-07-23T05:39:42;10.48;;;6.05;;
43933;SDS011;59081;42.706;23.306;2022-07-23T05:42:08;10.10;;;6.88;;
43933;SDS011;59081;42.706;23.306;2022-07-23T05:44:33;13.20;;;7.50;;
43933;SDS011;59081;42.706;23.306;2022-07-23T05:46:59;10.02;;;7.40;;
43933;SDS011;59081;42.706;23.306;2022-07-23T05:49:25;11.80;;;7.32;;
43933;SDS011;59081;42.706;23.306;2022-07-23T05:51:50;11.77;;;7.28;;
43933;SDS011;59081;42.706;23.306;2022-07-23T05:54:16;10.00;;;6.97;;
43933;SDS011;59081;42.706;23.306;2022-07-23T05:56:41;14.43;;;7.28;;
43933;SDS011;59081;42.706;23.306;2022-07-23T05:59:07;10.02;;;7.72;;
43933;SDS011;59081;42.706;23.306;2022-07-23T06:01:33;17.08;;;8.02;;
43933;SDS011;59081;42.706;23.306;2022-07-23T06:03:58;11.80;;;6.90;;
43933;SDS011;59081;42.706;23.306;2022-07-23T06:06:24;12.70;;;8.00;;
43933;SDS011;59081;42.706;23.306;2022-07-23T06:08:49;11.98;;;8.40;;
43933;SDS011;59081;42.706;23.306;2022-07-23T06:11:15;13.57;;;7.28;;
43933;SDS011;59081;42.706;23.306;2022-07-23T06:13:40;15.63;;;8.15;;
43933;SDS011;59081;42.706;23.306;2022-07-23T06:16:06;15.05;;;8.88;;
43933;SDS011;59081;42.706;23.306;2022-07-23T06:18:31;13.57;;;8.15;;
43933;SDS011;59081;42.706;23.306;2022-07-23T06:20:57;16.25;;;8.35;;
43933;SDS011;59081;42.706;23.306;2022-07-23T06:23:22;16.77;;;8.18;;
43933;SDS011;59081;42.706;23.306;2022-07-23T06:25:48;14.05;;;8.60;;
43933;SDS011;59081;42.706;23.306;2022-07-23T06:28:13;21.13;;;9.60;;
43933;SDS011;59081;42.706;23.306;2022-07-23T06:30:39;15.02;;;8.50;;
43933;SDS011;59081;42.706;23.306;2022-07-23T06:33:04;24.40;;;9.18;;
43933;SDS011;59081;42.706;23.306;2022-07-23T06:35:30;15.15;;;9.25;;
43933;SDS011;59081;42.706;23.306;2022-07-23T06:37:56;15.32;;;8.48;;
43933;SDS011;59081;42.706;23.306;2022-07-23T06:40:21;14.18;;;8.38;;
43933;SDS011;59081;42.706;23.306;2022-07-23T06:42:47;13.93;;;7.93;;
43933;SDS011;59081;42.706;23.306;2022-07-23T06:45:13;12.68;;;9.00;;
43933;SDS011;59081;42.706;23.306;2022-07-23T06:47:38;22.55;;;9.02;;
43933;SDS011;59081;42.706;23.306;2022-07-23T06:50:05;19.05;;;8.82;;
43933;SDS011;59081;42.706;23.306;2022-07-23T06:52:31;23.05;;;9.77;;
43933;SDS011;59081;42.706;23.306;2022-07-23T06:54:57;21.48;;;10.80;;
43933;SDS011;59081;42.706;23.306;2022-07-23T06:57:22;17.02;;;8.50;;
43933;SDS011;59081;42.706;23.306;2022-07-23T06:59:50;16.38;;;8.23;;
43933;SDS011;59081;42.706;23.306;2022-07-23T07:02:16;11.90;;;7.35;;
43933;SDS011;59081;42.706;23.306;2022-07-23T07:04:41;14.82;;;8.93;;
43933;SDS011;59081;42.706;23.306;2022-07-23T07:07:07;12.77;;;7.60;;
43933;SDS011;59081;42.706;23.306;2022-07-23T07:09:32;14.52;;;7.43;;
43933;SDS011;59081;42.706;23.306;2022-07-23T07:11:58;12.02;;;7.20;;
43933;SDS011;59081;42.706;23.306;2022-07-23T07:14:23;10.70;;;7.50;;
43933;SDS011;59081;42.706;23.306;2022-07-23T07:16:48;15.27;;;6.60;;
43933;SDS011;59081;42.706;23.306;2022-07-23T07:19:14;12.90;;;6.75;;
43933;SDS011;59081;42.706;23.306;2022-07-23T07:21:39;11.95;;;7.53;;
43933;SDS011;59081;42.706;23.306;2022-07-23T07:24:05;10.63;;;6.05;;
43933;SDS011;59081;42.706;23.306;2022-07-23T07:26:31;14.98;;;6.63;;
43933;SDS011;59081;42.706;23.306;2022-07-23T07:28:57;10.75;;;6.47;;
43933;SDS011;59081;42.706;23.306;2022-07-23T07:31:23;10.52;;;6.28;;
43933;SDS011;59081;42.706;23.306;2022-07-23T07:33:48;15.75;;;6.60;;
43933;SDS011;59081;42.706;23.306;2022-07-23T07:36:14;14.45;;;6.10;;
43933;SDS011;59081;42.706;23.306;2022-07-23T07:38:40;9.15;;;6.35;;
43933;SDS011;59081;42.706;23.306;2022-07-23T07:41:06;9.13;;;6.65;;
43933;SDS011;59081;42.706;23.306;2022-07-23T07:43:32;13.82;;;6.07;;
43933;SDS011;59081;42.706;23.306;2022-07-23T07:45:58;13.02;;;6.53;;
43933;SDS011;59081;42.706;23.306;2022-07-23T07:48:24;14.45;;;7.00;;
43933;SDS011;59081;42.706;23.306;2022-07-23T07:50:49;11.73;;;6.70;;
43933;SDS011;59081;42.706;23.306;2022-07-23T07:53:15;12.52;;;6.45;;
43933;SDS011;59081;42.706;23.306;2022-07-23T07:55:40;12.63;;;6.10;;
43933;SDS011;59081;42.706;23.306;2022-07-23T07:58:06;17.13;;;6.32;;
43933;SDS011;59081;42.706;23.306;2022-07-23T08:00:31;9.88;;;6.05;;
43933;SDS011;59081;42.706;23.306;2022-07-23T08:02:58;13.13;;;6.22;;
43933;SDS011;59081;42.706;23.306;2022-07-23T08:05:24;10.93;;;6.68;;
43933;SDS011;59081;42.706;23.306;2022-07-23T08:07:51;15.75;;;5.80;;
43933;SDS011;59081;42.706;23.306;2022-07-23T08:10:17;12.88;;;6.70;;
43933;SDS011;59081;42.706;23.306;2022-07-23T08:12:45;8.23;;;6.38;;
43933;SDS011;59081;42.706;23.306;2022-07-23T08:15:13;12.27;;;6.22;;
43933;SDS011;59081;42.706;23.306;2022-07-23T08:17:39;13.65;;;6.80;;
43933;SDS011;59081;42.706;23.306;2022-07-23T08:20:05;9.25;;;6.28;;
43933;SDS011;59081;42.706;23.306;2022-07-23T08:22:41;17.80;;;5.95;;
43933;SDS011;59081;42.706;23.306;2022-07-23T08:25:07;12.20;;;5.93;;
43933;SDS011;59081;42.706;23.306;2022-07-23T08:27:32;14.52;;;6.65;;
43933;SDS011;59081;42.706;23.306;2022-07-23T08:29:58;10.15;;;5.93;;
43933;SDS011;59081;42.706;23.306;2022-07-23T08:32:23;12.27;;;6.13;;
43933;SDS011;59081;42.706;23.306;2022-07-23T08:34:49;12.13;;;6.32;;
43933;SDS011;59081;42.706;23.306;2022-07-23T08:37:14;21.75;;;7.18;;
43933;SDS011;59081;42.706;23.306;2022-07-23T08:39:40;14.63;;;5.95;;
43933;SDS011;59081;42.706;23.306;2022-07-23T08:42:05;18.17;;;6.22;;
43933;SDS011;59081;42.706;23.306;2022-07-23T08:44:32;13.80;;;6.25;;
43933;SDS011;59081;42.706;23.306;2022-07-23T08:47:00;13.73;;;5.90;;
43933;SDS011;59081;42.706;23.306;2022-07-23T08:49:26;17.10;;;6.18;;
43933;SDS011;59081;42.706;23.306;2022-07-23T08:51:55;13.88;;;6.45;;
43933;SDS011;59081;42.706;23.306;2022-07-23T08:54:21;12.27;;;5.53;;
43933;SDS011;59081;42.706;23.306;2022-07-23T08:56:48;11.23;;;6.07;;
43933;SDS011;59081;42.706;23.306;2022-07-23T08:59:14;12.20;;;6.18;;
43933;SDS011;59081;42.706;23.306;2022-07-23T09:01:40;18.23;;;6.53;;
43933;SDS011;59081;42.706;23.306;2022-07-23T09:04:05;11.95;;;6.10;;
43933;SDS011;59081;42.706;23.306;2022-07-23T09:06:31;18.52;;;6.43;;
43933;SDS011;59081;42.706;23.306;2022-07-23T09:08:56;16.73;;;6.00;;
43933;SDS011;59081;42.706;23.306;2022-07-23T09:11:22;13.30;;;6.68;;
43933;SDS011;59081;42.706;23.306;2022-07-23T09:13:52;15.52;;;6.65;;
43933;SDS011;59081;42.706;23.306;2022-07-23T09:16:19;10.02;;;6.03;;
43933;SDS011;59081;42.706;23.306;2022-07-23T09:24:03;9.73;;;5.90;;
43933;SDS011;59081;42.706;23.306;2022-07-23T09:29:16;17.60;;;6.15;;
43933;SDS011;59081;42.706;23.306;2022-07-23T09:31:54;19.58;;;5.97;;
43933;SDS011;59081;42.706;23.306;2022-07-23T09:34:21;11.80;;;6.07;;
43933;SDS011;59081;42.706;23.306;2022-07-23T09:36:49;14.25;;;5.55;;
43933;SDS011;59081;42.706;23.306;2022-07-23T09:39:27;14.20;;;5.68;;
43933;SDS011;59081;42.706;23.306;2022-07-23T09:41:57;16.77;;;6.47;;
43933;SDS011;59081;42.706;23.306;2022-07-23T09:44:24;11.60;;;5.20;;
43933;SDS011;59081;42.706;23.306;2022-07-23T09:46:50;15.65;;;6.15;;
43933;SDS011;59081;42.706;23.306;2022-07-23T09:49:23;11.25;;;6.03;;
43933;SDS011;59081;42.706;23.306;2022-07-23T09:51:50;12.52;;;5.63;;
43933;SDS011;59081;42.706;23.306;2022-07-23T09:54:34;11.15;;;5.20;;
43933;SDS011;59081;42.706;23.306;2022-07-23T09:57:05;16.63;;;5.65;;
43933;SDS011;59081;42.706;23.306;2022-07-23T09:59:36;14.75;;;5.80;;
43933;SDS011;59081;42.706;23.306;2022-07-23T10:02:03;13.20;;;5.70;;
43933;SDS011;59081;42.706;23.306;2022-07-23T10:04:30;12.43;;;5.40;;
43933;SDS011;59081;42.706;23.306;2022-07-23T10:06:57;16.15;;;5.90;;
43933;SDS011;59081;42.706;23.306;2022-07-23T10:09:26;12.10;;;4.93;;
43933;SDS011;59081;42.706;23.306;2022-07-23T10:11:58;8.60;;;4.50;;
43933;SDS011;59081;42.706;23.306;2022-07-23T10:17:03;9.48;;;5.50;;
43933;SDS011;59081;42.706;23.306;2022-07-23T10:19:29;12.75;;;5.38;;
43933;SDS011;59081;42.706;23.306;2022-07-23T10:30:52;8.63;;;4.57;;
43933;SDS011;59081;42.706;23.306;2022-07-23T10:37:12;8.98;;;4.97;;
43933;SDS011;59081;42.706;23.306;2022-07-23T10:39:35;9.45;;;4.63;;
43933;SDS011;59081;42.706;23.306;2022-07-23T10:42:15;8.48;;;4.85;;
43933;SDS011;59081;42.706;23.306;2022-07-23T10:44:45;11.43;;;4.63;;
43933;SDS011;59081;42.706;23.306;2022-07-23T10:47:20;10.55;;;4.97;;
43933;SDS011;59081;42.706;23.306;2022-07-23T10:57:56;17.33;;;4.60;;
43933;SDS011;59081;42.706;23.306;2022-07-23T11:00:28;12.27;;;4.75;;
43933;SDS011;59081;42.706;23.306;2022-07-23T11:02:56;14.80;;;4.57;;
43933;SDS011;59081;42.706;23.306;2022-07-23T11:05:39;12.15;;;3.80;;
43933;SDS011;59081;42.706;23.306;2022-07-23T11:10:42;10.55;;;4.32;;
43933;SDS011;59081;42.706;23.306;2022-07-23T11:24:11;12.45;;;3.45;;
43933;SDS011;59081;42.706;23.306;2022-07-23T11:26:45;8.98;;;3.90;;
43933;SDS011;59081;42.706;23.306;2022-07-23T11:34:49;14.20;;;4.28;;
43933;SDS011;59081;42.706;23.306;2022-07-23T11:37:32;15.98;;;4.88;;
43933;SDS011;59081;42.706;23.306;2022-07-23T11:42:33;14.82;;;4.18;;
43933;SDS011;59081;42.706;23.306;2022-07-23T11:44:59;12.98;;;4.28;;
43933;SDS011;59081;42.706;23.306;2022-07-23T11:47:25;16.88;;;4.15;;
43933;SDS011;59081;42.706;23.306;2022-07-23T11:49:55;16.33;;;3.90;;
43933;SDS011;59081;42.706;23.306;2022-07-23T11:52:23;15.88;;;4.60;;
43933;SDS011;59081;42.706;23.306;2022-07-23T11:57:38;8.73;;;4.05;;
43933;SDS011;59081;42.706;23.306;2022-07-23T12:00:10;13.65;;;4.65;;
43933;SDS011;59081;42.706;23.306;2022-07-23T12:02:40;8.77;;;4.15;;
43933;SDS011;59081;42.706;23.306;2022-07-23T12:05:17;18.50;;;5.75;;
43933;SDS011;59081;42.706;23.306;2022-07-23T12:07:51;15.32;;;5.90;;
43933;SDS011;59081;42.706;23.306;2022-07-23T12:10:19;20.58;;;4.85;;
43933;SDS011;59081;42.706;23.306;2022-07-23T12:12:56;20.70;;;5.10;;
43933;SDS011;59081;42.706;23.306;2022-07-23T12:15:28;13.32;;;4.30;;
43933;SDS011;59081;42.706;23.306;2022-07-23T12:17:57;15.10;;;5.07;;
43933;SDS011;59081;42.706;23.306;2022-07-23T12:20:26;11.85;;;4.40;;
43933;SDS011;59081;42.706;23.306;2022-07-23T12:22:55;13.30;;;4.63;;
43933;SDS011;59081;42.706;23.306;2022-07-23T12:33:09;14.10;;;4.88;;
43933;SDS011;59081;42.706;23.306;2022-07-23T12:35:45;13.93;;;4.60;;
43933;SDS011;59081;42.706;23.306;2022-07-23T12:38:12;15.88;;;5.18;;
43933;SDS011;59081;42.706;23.306;2022-07-23T12:40:43;17.40;;;5.13;;
43933;SDS011;59081;42.706;23.306;2022-07-23T12:48:28;16.13;;;4.72;;
43933;SDS011;59081;42.706;23.306;2022-07-23T12:51:07;16.50;;;4.70;;
43933;SDS011;59081;42.706;23.306;2022-07-23T12:54:04;16.50;;;5.07;;
43933;SDS011;59081;42.706;23.306;2022-07-23T12:56:37;13.45;;;4.63;;
43933;SDS011;59081;42.706;23.306;2022-07-23T12:59:09;14.65;;;4.13;;
43933;SDS011;59081;42.706;23.306;2022-07-23T13:01:37;15.10;;;4.30;;
43933;SDS011;59081;42.706;23.306;2022-07-23T13:04:11;11.23;;;3.88;;
43933;SDS011;59081;42.706;23.306;2022-07-23T13:06:53;11.63;;;4.32;;
43933;SDS011;59081;42.706;23.306;2022-07-23T13:09:38;11.27;;;3.80;;
43933;SDS011;59081;42.706;23.306;2022-07-23T13:12:05;14.52;;;4.60;;
43933;SDS011;59081;42.706;23.306;2022-07-23T13:14:34;17.65;;;4.88;;
43933;SDS011;59081;42.706;23.306;2022-07-23T13:16:59;20.85;;;8.90;;
43933;SDS011;59081;42.706;23.306;2022-07-23T13:19:27;16.30;;;5.32;;
43933;SDS011;59081;42.706;23.306;2022-07-23T13:21:53;23.05;;;4.80;;
43933;SDS011;59081;42.706;23.306;2022-07-23T13:24:20;12.35;;;4.13;;
43933;SDS011;59081;42.706;23.306;2022-07-23T13:26:45;9.68;;;3.72;;
43933;SDS011;59081;42.706;23.306;2022-07-23T13:29:12;12.38;;;4.43;;
43933;SDS011;59081;42.706;23.306;2022-07-23T13:31:37;10.55;;;3.63;;
43933;SDS011;59081;42.706;23.306;2022-07-23T13:34:03;13.95;;;4.63;;
43933;SDS011;59081;42.706;23.306;2022-07-23T13:36:29;14.70;;;3.80;;
43933;SDS011;59081;42.706;23.306;2022-07-23T13:38:55;13.15;;;4.18;;
43933;SDS011;59081;42.706;23.306;2022-07-23T13:41:21;14.30;;;4.13;;
43933;SDS011;59081;42.706;23.306;2022-07-23T13:43:46;16.02;;;4.15;;
43933;SDS011;59081;42.706;23.306;2022-07-23T13:46:12;20.27;;;4.47;;
43933;SDS011;59081;42.706;23.306;2022-07-23T13:48:44;12.95;;;4.60;;
43933;SDS011;59081;42.706;23.306;2022-07-23T13:51:09;15.60;;;4.85;;
43933;SDS011;59081;42.706;23.306;2022-07-23T13:53:37;18.02;;;5.05;;
43933;SDS011;59081;42.706;23.306;2022-07-23T13:56:03;9.63;;;4.00;;
43933;SDS011;59081;42.706;23.306;2022-07-23T13:58:32;10.13;;;3.47;;
43933;SDS011;59081;42.706;23.306;2022-07-23T14:00:58;13.25;;;3.92;;
43933;SDS011;59081;42.706;23.306;2022-07-23T14:03:23;12.50;;;4.40;;
43933;SDS011;59081;42.706;23.306;2022-07-23T14:05:50;13.48;;;4.85;;
43933;SDS011;59081;42.706;23.306;2022-07-23T14:08:17;8.88;;;3.22;;
43933;SDS011;59081;42.706;23.306;2022-07-23T14:10:46;17.77;;;4.37;;
43933;SDS011;59081;42.706;23.306;2022-07-23T14:13:12;12.85;;;4.30;;
43933;SDS011;59081;42.706;23.306;2022-07-23T14:15:41;12.80;;;3.85;;
43933;SDS011;59081;42.706;23.306;2022-07-23T14:18:07;12.02;;;4.15;;
43933;SDS011;59081;42.706;23.306;2022-07-23T14:20:33;12.60;;;3.95;;
43933;SDS011;59081;42.706;23.306;2022-07-23T14:22:59;8.50;;;3.70;;
43933;SDS011;59081;42.706;23.306;2022-07-23T14:25:25;12.20;;;3.95;;
43933;SDS011;59081;42.706;23.306;2022-07-23T14:27:51;10.40;;;3.97;;
43933;SDS011;59081;42.706;23.306;2022-07-23T14:30:17;9.73;;;3.95;;
43933;SDS011;59081;42.706;23.306;2022-07-23T14:32:43;18.20;;;3.83;;
43933;SDS011;59081;42.706;23.306;2022-07-23T14:35:08;20.50;;;5.45;;
43933;SDS011;59081;42.706;23.306;2022-07-23T14:37:34;13.20;;;3.95;;
43933;SDS011;59081;42.706;23.306;2022-07-23T14:40:00;14.10;;;3.58;;
43933;SDS011;59081;42.706;23.306;2022-07-23T14:42:26;9.98;;;3.70;;
43933;SDS011;59081;42.706;23.306;2022-07-23T14:44:52;15.68;;;3.80;;
43933;SDS011;59081;42.706;23.306;2022-07-23T14:47:17;16.67;;;3.90;;
43933;SDS011;59081;42.706;23.306;2022-07-23T14:49:43;13.57;;;4.18;;
43933;SDS011;59081;42.706;23.306;2022-07-23T14:52:09;12.50;;;3.55;;
43933;SDS011;59081;42.706;23.306;2022-07-23T14:54:34;8.60;;;3.25;;
43933;SDS011;59081;42.706;23.306;2022-07-23T14:57:00;10.77;;;3.78;;
43933;SDS011;59081;42.706;23.306;2022-07-23T14:59:27;8.68;;;3.35;;
43933;SDS011;59081;42.706;23.306;2022-07-23T15:01:53;12.43;;;3.75;;
43933;SDS011;59081;42.706;23.306;2022-07-23T15:04:19;8.38;;;4.07;;
43933;SDS011;59081;42.706;23.306;2022-07-23T15:06:45;8.13;;;3.97;;
43933;SDS011;59081;42.706;23.306;2022-07-23T15:09:12;13.48;;;3.50;;
43933;SDS011;59081;42.706;23.306;2022-07-23T15:11:38;12.48;;;3.80;;
43933;SDS011;59081;42.706;23.306;2022-07-23T15:14:04;9.02;;;3.17;;
43933;SDS011;59081;42.706;23.306;2022-07-23T15:16:30;13.05;;;4.13;;
43933;SDS011;59081;42.706;23.306;2022-07-23T15:18:59;14.00;;;3.90;;
43933;SDS011;59081;42.706;23.306;2022-07-23T15:21:26;11.50;;;3.35;;
43933;SDS011;59081;42.706;23.306;2022-07-23T15:23:54;11.95;;;3.70;;
43933;SDS011;59081;42.706;23.306;2022-07-23T15:26:20;12.52;;;4.25;;
43933;SDS011;59081;42.706;23.306;2022-07-23T15:28:48;12.23;;;4.03;;
43933;SDS011;59081;42.706;23.306;2022-07-23T15:31:13;10.27;;;3.35;;